Time;durP1;ratioP1;P1;durP2;ratioP2;P2;SDS_P1;SDS_P2;PMS_P1;PMS_P2;Temp;Humidity;BMP_temperature;BMP_pressure;BME280_temperature;BME280_humidity;BME280_pressure;Samples;Min_cycle;Max_cycle;Signal;HPM_P1;HPM_P2
2023/04/06 00:01:41;;;;;;;14.27;12.45;;;1.00;99.90;;;;;;4925372;29;20039;-75
2023/04/06 00:04:06;;;;;;;12.90;11.60;;;1.00;99.90;;;;;;4911361;29;20039;-75
2023/04/06 00:06:33;;;;;;;13.30;6.93;;;1.00;99.90;;;;;;4913366;29;20038;-76
2023/04/06 00:08:59;;;;;;;9.32;6.45;;;0.90;99.90;;;;;;4925070;29;20046;-76
2023/04/06 00:11:24;;;;;;;9.07;5.68;;;0.90;99.90;;;;;;4910123;29;20036;-74
2023/04/06 00:13:50;;;;;;;12.63;11.38;;;0.90;99.90;;;;;;4920958;29;20043;-76
2023/04/06 00:16:15;;;;;;;11.38;6.10;;;0.90;99.90;;;;;;4907345;29;20221;-76
2023/04/06 00:18:41;;;;;;;9.10;5.88;;;0.90;99.90;;;;;;4905522;29;20044;-75
2023/04/06 00:21:07;;;;;;;9.30;6.18;;;0.80;99.90;;;;;;4926311;29;20036;-75
2023/04/06 00:23:32;;;;;;;7.35;5.63;;;0.80;99.90;;;;;;4928507;29;20039;-75
2023/04/06 00:25:58;;;;;;;12.30;11.10;;;0.80;99.90;;;;;;4934712;29;20086;-75
2023/04/06 00:28:26;;;;;;;11.93;6.38;;;0.80;99.90;;;;;;4912583;29;20079;-75
2023/04/06 00:30:53;;;;;;;9.88;6.15;;;0.80;99.90;;;;;;4917602;29;20044;-75
2023/04/06 00:33:20;;;;;;;8.93;5.53;;;0.80;99.90;;;;;;4933256;29;20051;-75
2023/04/06 00:35:45;;;;;;;9.95;5.88;;;0.80;99.90;;;;;;4938184;29;20098;-74
2023/04/06 00:38:11;;;;;;;10.90;5.97;;;0.80;99.90;;;;;;4928075;29;20071;-76
2023/04/06 00:40:39;;;;;;;13.38;12.07;;;0.80;99.90;;;;;;4928097;29;20073;-75
2023/04/06 00:43:09;;;;;;;9.00;5.85;;;0.80;99.90;;;;;;4907931;29;20119;-75
2023/04/06 00:45:34;;;;;;;13.23;11.75;;;0.80;99.90;;;;;;4913561;29;20028;-75
2023/04/06 00:48:01;;;;;;;8.20;6.20;;;0.80;99.90;;;;;;4920090;29;20035;-75
2023/04/06 00:50:27;;;;;;;12.75;11.52;;;0.90;99.90;;;;;;4923395;29;20103;-75
2023/04/06 00:52:53;;;;;;;13.32;11.93;;;0.90;99.90;;;;;;4904204;29;20047;-75
2023/04/06 00:55:19;;;;;;;8.90;5.78;;;0.90;99.90;;;;;;4920066;29;20058;-75
2023/04/06 00:57:44;;;;;;;9.38;6.25;;;0.90;99.90;;;;;;4927351;29;20042;-75
2023/04/06 01:00:11;;;;;;;12.90;11.70;;;0.80;99.90;;;;;;4920095;29;20082;-74
2023/04/06 01:02:37;;;;;;;12.18;6.57;;;0.70;99.90;;;;;;4911832;29;20032;-75
2023/04/06 01:05:03;;;;;;;14.32;12.63;;;0.70;99.90;;;;;;4920129;29;20050;-75
2023/04/06 01:07:28;;;;;;;8.32;6.07;;;0.60;99.90;;;;;;4904036;29;20043;-75
2023/04/06 01:09:54;;;;;;;8.68;5.35;;;0.60;99.90;;;;;;4919778;29;20035;-75
2023/04/06 01:12:20;;;;;;;10.32;6.80;;;0.50;99.90;;;;;;4906690;29;20036;-76
2023/04/06 01:14:45;;;;;;;8.32;5.63;;;0.50;99.90;;;;;;4920227;29;20478;-75
2023/04/06 01:17:11;;;;;;;8.07;5.40;;;0.50;99.90;;;;;;4923885;29;20040;-76
2023/04/06 01:19:37;;;;;;;10.32;5.50;;;0.50;99.90;;;;;;4898675;29;20059;-75
2023/04/06 01:22:02;;;;;;;9.27;5.93;;;0.40;99.90;;;;;;4921745;28;20035;-75
2023/04/06 01:24:28;;;;;;;13.00;11.70;;;0.40;99.90;;;;;;4938149;29;20039;-75
2023/04/06 01:26:53;;;;;;;13.30;11.98;;;0.30;99.90;;;;;;4934910;29;20056;-75
2023/04/06 01:29:19;;;;;;;11.13;6.78;;;0.40;99.90;;;;;;4914362;29;20042;-75
2023/04/06 01:31:45;;;;;;;9.23;6.47;;;0.30;99.90;;;;;;4919539;29;20502;-76
2023/04/06 01:34:10;;;;;;;9.48;6.45;;;0.30;99.90;;;;;;4915554;29;20507;-75
2023/04/06 01:36:36;;;;;;;10.75;6.60;;;0.30;99.90;;;;;;4916961;29;20078;-75
2023/04/06 01:39:01;;;;;;;14.00;12.65;;;0.20;99.90;;;;;;4937684;29;20047;-75
2023/04/06 01:41:27;;;;;;;12.95;11.73;;;0.20;99.90;;;;;;4935518;29;20485;-76
2023/04/06 01:43:54;;;;;;;8.70;5.78;;;0.20;99.90;;;;;;4930451;29;20299;-75
2023/04/06 01:46:20;;;;;;;9.48;6.15;;;0.10;99.90;;;;;;4937111;29;20402;-75
2023/04/06 01:48:45;;;;;;;10.65;6.85;;;0.10;99.90;;;;;;4920135;29;20044;-75
2023/04/06 01:51:11;;;;;;;10.00;6.63;;;0.10;99.90;;;;;;4910604;29;20043;-76
2023/04/06 01:53:37;;;;;;;8.52;6.10;;;0.00;99.90;;;;;;4931691;29;20042;-75
2023/04/06 01:56:02;;;;;;;12.25;7.22;;;0.00;99.90;;;;;;4918883;29;20462;-75
2023/04/06 01:58:28;;;;;;;8.77;5.78;;;0.00;99.90;;;;;;4924330;29;20086;-75
2023/04/06 02:00:54;;;;;;;11.45;6.88;;;0.00;99.90;;;;;;4933722;29;20047;-75
2023/04/06 02:03:19;;;;;;;8.93;5.75;;;-0.10;99.90;;;;;;4918515;29;20039;-75
2023/04/06 02:05:45;;;;;;;8.60;6.07;;;-0.10;99.90;;;;;;4890053;29;20055;-76
2023/04/06 02:08:10;;;;;;;10.30;6.03;;;-0.10;99.90;;;;;;4915411;29;20035;-75
2023/04/06 02:10:36;;;;;;;14.18;12.70;;;-0.10;99.90;;;;;;4916631;29;20046;-75
2023/04/06 02:13:02;;;;;;;10.25;6.25;;;-0.10;99.90;;;;;;4910647;29;20264;-76
2023/04/06 02:15:27;;;;;;;6.88;4.97;;;-0.10;99.90;;;;;;4918676;29;20481;-75
2023/04/06 02:17:53;;;;;;;14.65;13.15;;;-0.20;99.90;;;;;;4917757;29;20410;-76
2023/04/06 02:20:19;;;;;;;11.73;6.93;;;-0.20;99.90;;;;;;4918611;29;20038;-75
2023/04/06 02:22:44;;;;;;;7.38;5.25;;;-0.20;99.90;;;;;;4937408;29;20174;-75
2023/04/06 02:25:10;;;;;;;9.70;5.97;;;-0.20;99.90;;;;;;4921703;29;20051;-75
2023/04/06 02:27:36;;;;;;;9.85;5.40;;;-0.20;99.90;;;;;;4916984;29;20046;-75
2023/04/06 02:30:02;;;;;;;10.30;5.85;;;-0.30;99.90;;;;;;4920879;29;20050;-75
2023/04/06 02:32:28;;;;;;;13.75;12.27;;;-0.20;99.90;;;;;;4921197;29;20087;-75
2023/04/06 02:34:53;;;;;;;13.48;12.07;;;-0.20;99.90;;;;;;4929370;29;20126;-75
2023/04/06 02:37:19;;;;;;;12.40;6.68;;;-0.20;99.90;;;;;;4920474;29;20205;-75
2023/04/06 02:39:45;;;;;;;10.05;6.18;;;-0.30;99.90;;;;;;4926312;29;20044;-75
2023/04/06 02:42:11;;;;;;;9.38;6.25;;;-0.30;99.90;;;;;;4912854;29;20411;-75
2023/04/06 02:44:37;;;;;;;15.43;13.82;;;-0.30;99.90;;;;;;4914391;29;20054;-76
2023/04/06 02:47:02;;;;;;;10.02;5.65;;;-0.30;99.90;;;;;;4919728;29;20482;-75
2023/04/06 02:49:28;;;;;;;10.27;5.53;;;-0.20;99.90;;;;;;4926598;29;20078;-75
2023/04/06 02:51:53;;;;;;;13.75;6.55;;;-0.20;99.90;;;;;;4919371;29;20047;-74
2023/04/06 02:54:19;;;;;;;10.55;6.60;;;-0.30;99.90;;;;;;4937316;29;20049;-75
2023/04/06 02:56:45;;;;;;;11.48;6.65;;;-0.20;99.90;;;;;;4913635;29;20107;-75
2023/04/06 02:59:10;;;;;;;7.43;5.18;;;-0.20;99.90;;;;;;4925803;29;20070;-75
2023/04/06 03:01:36;;;;;;;11.35;6.10;;;-0.20;99.90;;;;;;4928414;29;20039;-75
2023/04/06 03:04:02;;;;;;;10.15;6.10;;;-0.20;99.90;;;;;;4921017;29;20046;-75
2023/04/06 03:06:28;;;;;;;10.63;6.57;;;-0.20;99.90;;;;;;4931486;29;20032;-75
2023/04/06 03:08:53;;;;;;;8.70;6.07;;;-0.30;99.90;;;;;;4913672;29;20086;-75
2023/04/06 03:11:19;;;;;;;12.50;5.88;;;-0.30;99.90;;;;;;4925767;29;20414;-75
2023/04/06 03:13:44;;;;;;;13.85;12.52;;;-0.30;99.90;;;;;;4917616;29;20410;-75
2023/04/06 03:16:10;;;;;;;10.07;6.03;;;-0.30;99.90;;;;;;4916659;29;20040;-75
2023/04/06 03:18:35;;;;;;;10.30;6.25;;;-0.30;99.90;;;;;;4929454;29;20521;-75
2023/04/06 03:21:01;;;;;;;8.98;6.18;;;-0.30;99.90;;;;;;4898727;29;20135;-75
2023/04/06 03:23:27;;;;;;;9.90;6.55;;;-0.40;99.90;;;;;;4896619;29;20032;-75
2023/04/06 03:25:52;;;;;;;9.43;6.45;;;-0.40;99.90;;;;;;4918292;29;20043;-75
2023/04/06 03:28:18;;;;;;;11.15;6.60;;;-0.40;99.90;;;;;;4928540;29;20036;-75
2023/04/06 03:30:44;;;;;;;10.13;6.05;;;-0.50;99.90;;;;;;4936488;29;20494;-75
2023/04/06 03:33:10;;;;;;;10.70;6.63;;;-0.50;99.90;;;;;;4936340;29;20046;-75
2023/04/06 03:35:36;;;;;;;9.00;6.03;;;-0.50;99.90;;;;;;4908584;29;20427;-75
2023/04/06 03:38:02;;;;;;;12.48;6.63;;;-0.50;99.90;;;;;;4925910;29;20047;-75
2023/04/06 03:40:28;;;;;;;10.88;6.55;;;-0.50;99.90;;;;;;4936297;29;20053;-75
2023/04/06 03:42:53;;;;;;;12.85;6.70;;;-0.60;99.90;;;;;;4936117;29;20043;-75
2023/04/06 03:45:19;;;;;;;9.13;6.22;;;-0.60;99.90;;;;;;4920628;28;20142;-75
2023/04/06 03:47:45;;;;;;;11.32;6.30;;;-0.60;99.90;;;;;;4928758;29;20126;-75
2023/04/06 03:50:11;;;;;;;11.25;6.85;;;-0.60;99.90;;;;;;4942710;29;20514;-75
2023/04/06 03:52:36;;;;;;;14.00;6.82;;;-0.60;99.90;;;;;;4941568;29;20058;-75
2023/04/06 03:55:02;;;;;;;9.10;6.53;;;-0.60;99.90;;;;;;4918308;29;20039;-75
2023/04/06 03:57:28;;;;;;;11.02;6.68;;;-0.60;99.90;;;;;;4933932;29;20070;-75
2023/04/06 03:59:54;;;;;;;8.98;5.60;;;-0.60;99.90;;;;;;4938146;29;20605;-75
2023/04/06 04:02:19;;;;;;;9.05;6.28;;;-0.60;99.90;;;;;;4913901;29;20044;-75
2023/04/06 04:04:45;;;;;;;10.75;6.90;;;-0.60;99.90;;;;;;4908409;29;20035;-75
2023/04/06 04:07:11;;;;;;;9.57;5.97;;;-0.60;99.90;;;;;;4952616;28;20036;-75
2023/04/06 04:09:37;;;;;;;11.20;6.47;;;-0.60;99.90;;;;;;4938768;29;20043;-75
2023/04/06 04:12:02;;;;;;;13.05;7.35;;;-0.60;99.90;;;;;;4942290;29;20047;-75
2023/04/06 04:14:28;;;;;;;15.55;14.02;;;-0.60;99.90;;;;;;4934918;29;20046;-75
2023/04/06 04:16:56;;;;;;;10.32;6.82;;;-0.60;99.90;;;;;;4957845;23;20101;-77
2023/04/06 04:19:25;;;;;;;12.10;7.15;;;-0.60;99.90;;;;;;4932290;29;20047;-78
2023/04/06 04:21:50;;;;;;;11.07;7.00;;;-0.60;99.90;;;;;;4926278;29;20522;-78
2023/04/06 04:24:19;;;;;;;11.90;7.28;;;-0.60;99.90;;;;;;4926688;29;20077;-78
2023/04/06 04:26:55;;;;;;;11.10;6.60;;;-0.60;99.90;;;;;;4917923;29;20486;-77
2023/04/06 04:29:24;;;;;;;10.07;5.85;;;-0.60;99.90;;;;;;4900390;29;20036;-78
2023/04/06 04:31:52;;;;;;;12.07;7.05;;;-0.60;99.90;;;;;;4904938;29;20043;-78
2023/04/06 04:34:24;;;;;;;12.95;7.15;;;-0.60;99.90;;;;;;4907722;29;20047;-78
2023/04/06 04:36:51;;;;;;;15.85;7.07;;;-0.60;99.90;;;;;;4908078;29;20054;-78
2023/04/06 04:39:16;;;;;;;13.68;7.53;;;-0.60;99.90;;;;;;4935104;29;20039;-79
2023/04/06 04:41:45;;;;;;;10.32;6.80;;;-0.50;99.90;;;;;;4910321;29;20055;-78
2023/04/06 04:44:11;;;;;;;11.45;6.75;;;-0.50;99.90;;;;;;4914457;29;20040;-78
2023/04/06 04:46:36;;;;;;;14.20;6.85;;;-0.60;99.90;;;;;;4901326;29;20455;-78
2023/04/06 04:49:02;;;;;;;16.17;14.63;;;-0.50;99.90;;;;;;4911552;29;20035;-78
2023/04/06 04:51:32;;;;;;;9.85;6.20;;;-0.50;99.90;;;;;;4918385;29;20107;-79
2023/04/06 04:53:58;;;;;;;10.50;6.30;;;-0.50;99.90;;;;;;4926054;28;20043;-78
2023/04/06 04:56:29;;;;;;;12.10;6.47;;;-0.50;99.90;;;;;;4926453;28;20078;-78
2023/04/06 04:58:55;;;;;;;10.95;7.07;;;-0.50;99.90;;;;;;4912360;29;20046;-78
2023/04/06 05:01:21;;;;;;;13.48;6.90;;;-0.50;99.90;;;;;;4902111;29;20040;-78
2023/04/06 05:03:46;;;;;;;16.27;7.65;;;-0.50;99.90;;;;;;4903623;29;20091;-78
2023/04/06 05:06:12;;;;;;;10.80;7.25;;;-0.50;99.90;;;;;;4911799;29;20039;-78
2023/04/06 05:08:39;;;;;;;11.43;6.95;;;-0.50;99.90;;;;;;4903934;29;20050;-78
2023/04/06 05:11:08;;;;;;;10.38;6.45;;;-0.50;99.90;;;;;;4907200;29;20035;-84
2023/04/06 05:13:43;;;;;;;10.43;7.38;;;-0.50;99.90;;;;;;4914901;29;20134;-79
2023/04/06 05:16:29;;;;;;;10.57;6.78;;;-0.50;99.90;;;;;;4904860;29;20051;-79
2023/04/06 05:19:05;;;;;;;10.65;7.00;;;-0.50;99.90;;;;;;4914190;29;20047;-80
2023/04/06 05:21:37;;;;;;;11.88;6.43;;;-0.40;99.90;;;;;;4910030;29;20043;-80
2023/04/06 05:24:40;;;;;;;10.70;7.13;;;-0.30;99.90;;;;;;4909814;29;20494;-80
2023/04/06 05:27:05;;;;;;;14.23;8.15;;;-0.30;99.90;;;;;;4881677;29;20052;-78
2023/04/06 05:29:37;;;;;;;13.30;6.82;;;-0.20;99.90;;;;;;4899244;29;20052;-80
2023/04/06 05:32:06;;;;;;;12.75;7.63;;;-0.20;99.90;;;;;;4896429;29;20115;-77
2023/04/06 05:34:34;;;;;;;12.45;7.20;;;-0.10;99.90;;;;;;4905873;29;20338;-77
2023/04/06 05:37:08;;;;;;;11.48;7.72;;;0.00;99.90;;;;;;4905825;29;20061;-77
2023/04/06 05:39:35;;;;;;;17.52;15.73;;;0.10;99.90;;;;;;4909552;29;20043;-77
2023/04/06 05:42:07;;;;;;;11.48;7.88;;;0.10;99.90;;;;;;4889256;29;20123;-77
2023/04/06 05:44:33;;;;;;;16.83;15.30;;;0.20;99.90;;;;;;4890011;29;20044;-77
2023/04/06 05:47:04;;;;;;;12.95;7.72;;;0.20;99.90;;;;;;4889923;29;20104;-78
2023/04/06 05:49:31;;;;;;;12.13;6.93;;;0.30;99.90;;;;;;4893249;29;20079;-77
2023/04/06 05:51:59;;;;;;;16.25;14.70;;;0.40;99.90;;;;;;4897359;29;20043;-78
2023/04/06 05:54:26;;;;;;;12.85;7.70;;;0.50;99.90;;;;;;4906098;29;20050;-78
2023/04/06 05:56:54;;;;;;;12.85;8.50;;;0.60;99.90;;;;;;4911407;29;20131;-77
2023/04/06 05:59:25;;;;;;;15.13;7.97;;;0.70;99.90;;;;;;4904036;29;20402;-77
2023/04/06 06:01:51;;;;;;;11.55;7.38;;;0.80;99.90;;;;;;4902544;29;20118;-77
2023/04/06 06:04:18;;;;;;;15.75;14.10;;;1.00;99.90;;;;;;4901333;29;20052;-78
2023/04/06 06:06:44;;;;;;;15.88;14.38;;;1.00;99.90;;;;;;4902842;29;20052;-78
2023/04/06 06:09:10;;;;;;;16.25;14.55;;;1.10;99.90;;;;;;4887910;29;20040;-79
2023/04/06 06:12:07;;;;;;;15.52;13.93;;;1.20;99.90;;;;;;4881209;29;20043;-78
2023/04/06 06:14:33;;;;;;;17.23;15.52;;;1.30;99.90;;;;;;4896145;29;20378;-78
2023/04/06 06:16:59;;;;;;;13.85;7.80;;;1.40;99.90;;;;;;4925518;29;20054;-78
2023/04/06 06:19:31;;;;;;;10.93;6.60;;;1.50;99.90;;;;;;4940841;29;20039;-77
2023/04/06 06:21:56;;;;;;;17.02;15.32;;;1.50;99.90;;;;;;4926739;29;20501;-78
2023/04/06 06:24:34;;;;;;;16.65;14.95;;;1.60;99.90;;;;;;4922096;29;20040;-78
2023/04/06 06:27:10;;;;;;;16.52;14.88;;;1.60;99.90;;;;;;4899541;29;20032;-78
2023/04/06 06:29:38;;;;;;;16.98;15.18;;;1.70;99.90;;;;;;4888957;29;20040;-78
2023/04/06 06:32:08;;;;;;;17.10;15.25;;;1.80;99.90;;;;;;4887286;29;20531;-78
2023/04/06 06:34:37;;;;;;;16.27;14.38;;;1.90;99.90;;;;;;4891554;29;20036;-77
2023/04/06 06:37:06;;;;;;;17.00;15.15;;;1.90;99.90;;;;;;4894742;29;20044;-78
2023/04/06 06:39:35;;;;;;;15.70;14.10;;;2.00;99.90;;;;;;4886688;29;20058;-77
2023/04/06 06:42:01;;;;;;;16.83;15.13;;;2.20;99.90;;;;;;4886969;29;20123;-78
2023/04/06 06:44:32;;;;;;;16.55;14.85;;;2.30;99.90;;;;;;4887493;29;20055;-78
2023/04/06 06:47:00;;;;;;;15.82;14.23;;;2.40;99.90;;;;;;4886257;29;20048;-78
2023/04/06 06:49:28;;;;;;;16.15;14.48;;;2.40;99.90;;;;;;4888347;29;20028;-78
2023/04/06 06:51:57;;;;;;;16.30;14.80;;;2.60;99.90;;;;;;4892875;29;20047;-78
2023/04/06 06:54:25;;;;;;;17.08;15.45;;;2.70;99.90;;;;;;4885116;29;20046;-78
2023/04/06 06:56:54;;;;;;;17.10;15.38;;;2.80;99.90;;;;;;4884660;29;20201;-78
2023/04/06 06:59:20;;;;;;;18.17;16.20;;;2.90;99.90;;;;;;4884961;29;20119;-78
2023/04/06 07:01:50;;;;;;;17.65;15.95;;;3.00;99.90;;;;;;4889458;29;20044;-78
2023/04/06 07:04:15;;;;;;;17.85;15.30;;;3.20;99.90;;;;;;4894610;29;20042;-78
2023/04/06 07:06:43;;;;;;;17.70;15.43;;;3.30;99.90;;;;;;4887119;29;20036;-78
2023/04/06 07:09:12;;;;;;;17.38;15.57;;;3.40;99.90;;;;;;4884066;29;20454;-77
2023/04/06 07:11:38;;;;;;;16.33;14.75;;;3.50;99.90;;;;;;4884897;29;20047;-78
2023/04/06 07:14:03;;;;;;;16.88;15.07;;;3.70;99.90;;;;;;4892617;29;20490;-77
2023/04/06 07:16:32;;;;;;;17.45;15.60;;;3.80;99.90;;;;;;4892473;29;20123;-77
2023/04/06 07:19:03;;;;;;;17.25;15.52;;;3.90;99.90;;;;;;4892638;29;20036;-77
2023/04/06 07:21:29;;;;;;;18.35;16.20;;;4.00;99.90;;;;;;4883730;29;20040;-77
2023/04/06 07:23:58;;;;;;;16.20;14.60;;;4.20;99.90;;;;;;4884250;29;20083;-78
2023/04/06 07:26:26;;;;;;;18.17;16.25;;;4.30;99.90;;;;;;4883690;29;20131;-77
2023/04/06 07:28:55;;;;;;;16.95;15.25;;;4.50;99.90;;;;;;4887250;29;20076;-77
2023/04/06 07:31:21;;;;;;;18.15;16.27;;;4.70;99.90;;;;;;4902334;29;20043;-77
2023/04/06 07:33:47;;;;;;;17.35;15.57;;;4.90;99.90;;;;;;4902359;29;20055;-78
2023/04/06 07:36:16;;;;;;;17.25;15.50;;;5.20;99.90;;;;;;4901971;29;20048;-78
2023/04/06 07:38:42;;;;;;;17.98;15.27;;;5.40;99.90;;;;;;4902008;29;20050;-78
2023/04/06 07:41:08;;;;;;;16.95;15.13;;;5.70;99.90;;;;;;4901995;29;20578;-78
2023/04/06 07:43:38;;;;;;;17.52;15.82;;;5.90;99.90;;;;;;4895569;29;20039;-78
2023/04/06 07:46:06;;;;;;;16.50;14.35;;;6.00;99.90;;;;;;4900480;29;20036;-78
2023/04/06 07:48:37;;;;;;;16.10;14.50;;;6.10;99.90;;;;;;4884931;29;20407;-78
2023/04/06 07:51:08;;;;;;;16.77;15.07;;;6.20;99.90;;;;;;4883348;29;20455;-78
2023/04/06 07:53:37;;;;;;;16.95;15.27;;;6.40;99.90;;;;;;4891394;29;20467;-78
2023/04/06 07:56:02;;;;;;;17.90;15.93;;;6.60;99.90;;;;;;4901222;29;20126;-78
2023/04/06 07:58:28;;;;;;;15.40;13.80;;;6.80;99.90;;;;;;4901438;29;20506;-78
2023/04/06 08:00:57;;;;;;;16.98;14.70;;;7.00;99.90;;;;;;4892327;29;20042;-78
2023/04/06 08:03:26;;;;;;;16.38;14.75;;;7.00;99.90;;;;;;4884443;29;20051;-78
2023/04/06 08:05:52;;;;;;;17.05;15.43;;;7.30;99.90;;;;;;4884889;29;20059;-78
2023/04/06 08:08:19;;;;;;;17.85;14.75;;;7.50;99.90;;;;;;4889588;29;20106;-77
2023/04/06 08:10:45;;;;;;;17.25;14.60;;;7.60;99.90;;;;;;4892187;29;20127;-78
2023/04/06 08:13:11;;;;;;;16.48;14.57;;;7.70;99.90;;;;;;4891289;29;20056;-78
2023/04/06 08:15:37;;;;;;;16.50;14.73;;;7.90;99.90;;;;;;4884202;29;20043;-78
2023/04/06 08:18:02;;;;;;;18.33;14.80;;;8.10;99.90;;;;;;4883938;29;20115;-78
2023/04/06 08:20:28;;;;;;;16.55;14.88;;;8.20;99.90;;;;;;4883303;29;20055;-78
2023/04/06 08:22:56;;;;;;;16.58;14.82;;;8.30;99.90;;;;;;4892210;29;20031;-78
2023/04/06 08:25:22;;;;;;;16.77;14.90;;;8.50;99.90;;;;;;4887185;29;20131;-78
2023/04/06 08:27:48;;;;;;;17.20;15.38;;;8.60;99.90;;;;;;4883330;29;20516;-78
2023/04/06 08:30:19;;;;;;;19.52;15.65;;;8.90;99.90;;;;;;4883378;29;20044;-78
2023/04/06 08:32:45;;;;;;;18.33;16.42;;;9.10;99.90;;;;;;4886217;29;20044;-78
2023/04/06 08:35:12;;;;;;;19.05;17.08;;;9.30;99.90;;;;;;4888760;29;20407;-78
2023/04/06 08:37:38;;;;;;;19.15;16.17;;;9.50;99.90;;;;;;4897402;29;20046;-78
2023/04/06 08:40:04;;;;;;;20.45;16.20;;;9.60;99.90;;;;;;4887677;29;20044;-78
2023/04/06 08:42:33;;;;;;;18.92;16.40;;;9.80;99.90;;;;;;4891376;29;20079;-78
2023/04/06 08:44:59;;;;;;;18.17;15.45;;;9.80;97.90;;;;;;4898719;29;20495;-78
2023/04/06 08:47:27;;;;;;;16.98;15.25;;;10.00;93.90;;;;;;4896175;29;20122;-78
2023/04/06 08:49:54;;;;;;;17.63;15.75;;;10.40;93.90;;;;;;4893327;29;20035;-78
2023/04/06 08:52:20;;;;;;;18.77;14.90;;;10.60;92.00;;;;;;4900192;29;20043;-78
2023/04/06 08:54:47;;;;;;;15.90;14.25;;;11.00;90.50;;;;;;4891778;29;20044;-78
2023/04/06 08:57:13;;;;;;;16.70;14.35;;;11.30;83.30;;;;;;4889074;29;20044;-78
2023/04/06 08:59:41;;;;;;;17.27;15.55;;;11.70;81.40;;;;;;4906665;29;20048;-78
2023/04/06 09:02:15;;;;;;;16.58;14.45;;;12.00;78.20;;;;;;4895859;29;20074;-77
2023/04/06 09:04:41;;;;;;;17.15;14.70;;;12.30;76.40;;;;;;4895960;29;20411;-78
2023/04/06 09:07:07;;;;;;;17.63;14.88;;;12.50;73.60;;;;;;4888191;29;20044;-78
2023/04/06 09:09:33;;;;;;;17.15;15.38;;;12.60;69.90;;;;;;4904029;29;20051;-78
2023/04/06 09:12:05;;;;;;;17.77;15.20;;;12.90;69.70;;;;;;4905828;29;20422;-78
2023/04/06 09:14:38;;;;;;;17.38;15.48;;;13.30;70.20;;;;;;4910558;29;20059;-78
2023/04/06 09:17:05;;;;;;;17.67;15.65;;;13.50;67.60;;;;;;4895722;29;20054;-78
2023/04/06 09:19:31;;;;;;;17.65;15.75;;;13.70;68.30;;;;;;4888622;29;20438;-78
2023/04/06 09:22:07;;;;;;;18.08;16.17;;;14.10;68.90;;;;;;4888886;29;20059;-78
2023/04/06 09:24:43;;;;;;;18.02;16.10;;;14.50;65.70;;;;;;4897902;29;20071;-78
2023/04/06 09:27:09;;;;;;;19.98;17.33;;;14.60;63.40;;;;;;4887193;29;20160;-78
2023/04/06 09:29:36;;;;;;;17.92;16.00;;;14.60;66.80;;;;;;4887287;29;20599;-78
2023/04/06 09:32:06;;;;;;;21.50;18.25;;;14.20;62.80;;;;;;4887165;29;20132;-78
2023/04/06 09:34:33;;;;;;;19.58;17.48;;;14.00;63.00;;;;;;4886855;29;20098;-78
2023/04/06 09:36:59;;;;;;;21.13;18.15;;;13.80;64.70;;;;;;4893520;29;20043;-78
2023/04/06 09:39:25;;;;;;;19.70;17.70;;;13.70;63.70;;;;;;4892234;29;20413;-78
2023/04/06 09:41:55;;;;;;;18.80;16.80;;;13.50;63.90;;;;;;4905336;29;20191;-78
2023/04/06 09:44:21;;;;;;;21.77;18.17;;;13.30;64.20;;;;;;4904764;29;20054;-78
2023/04/06 09:46:47;;;;;;;20.88;17.80;;;13.00;62.70;;;;;;4921144;29;20035;-78
2023/04/06 09:49:17;;;;;;;20.33;18.23;;;12.70;62.80;;;;;;4920346;29;20047;-78
2023/04/06 09:51:59;;;;;;;19.85;17.75;;;12.40;64.00;;;;;;4896276;29;20409;-78
2023/04/06 09:54:29;;;;;;;19.25;17.25;;;12.40;65.60;;;;;;4891680;29;20080;-78
2023/04/06 09:57:05;;;;;;;19.67;17.65;;;12.30;66.60;;;;;;4886125;29;20406;-78
2023/04/06 09:59:58;;;;;;;21.48;17.30;;;12.40;67.10;;;;;;4886135;29;20416;-78
2023/04/06 10:03:05;;;;;;;18.70;16.80;;;12.40;65.70;;;;;;4895396;29;20410;-78
2023/04/06 10:05:39;;;;;;;20.25;17.58;;;12.40;65.00;;;;;;4919926;29;20078;-78
2023/04/06 10:08:10;;;;;;;20.05;17.77;;;12.40;66.40;;;;;;4901082;29;20376;-78
2023/04/06 10:10:42;;;;;;;19.65;17.10;;;12.50;66.60;;;;;;4893966;29;20080;-77
2023/04/06 10:13:19;;;;;;;19.98;17.88;;;12.60;65.80;;;;;;4886508;29;20193;-78
2023/04/06 10:15:48;;;;;;;20.05;17.95;;;12.80;65.80;;;;;;4891198;29;20122;-78
2023/04/06 10:18:14;;;;;;;21.60;18.02;;;12.80;64.90;;;;;;4893052;29;20044;-78
2023/04/06 10:20:48;;;;;;;20.10;17.67;;;12.80;64.40;;;;;;4892625;29;20186;-78
2023/04/06 10:23:15;;;;;;;20.75;17.65;;;12.90;63.60;;;;;;4885495;29;20047;-78
2023/04/06 10:25:59;;;;;;;21.50;18.83;;;12.90;63.90;;;;;;4906854;29;20043;-79
2023/04/06 10:28:32;;;;;;;19.50;17.50;;;13.10;64.90;;;;;;4895724;29;20036;-78
2023/04/06 10:31:00;;;;;;;19.40;17.40;;;13.30;65.10;;;;;;4903854;29;20056;-79
2023/04/06 10:33:29;;;;;;;18.92;16.90;;;13.60;64.90;;;;;;4895181;29;20076;-78
2023/04/06 10:35:57;;;;;;;19.23;17.23;;;13.80;64.00;;;;;;4919316;29;20107;-78
2023/04/06 10:38:38;;;;;;;20.70;17.80;;;14.10;63.40;;;;;;4885467;29;20192;-79
2023/04/06 10:41:11;;;;;;;19.80;17.70;;;14.40;63.50;;;;;;4888395;29;20507;-79
2023/04/06 10:43:39;;;;;;;19.80;17.48;;;14.90;62.20;;;;;;4894126;29;20044;-79
2023/04/06 10:46:09;;;;;;;20.98;17.75;;;15.60;61.30;;;;;;4885199;29;20040;-78
2023/04/06 10:48:43;;;;;;;22.35;19.08;;;15.90;60.30;;;;;;4893870;29;20130;-79
2023/04/06 10:51:13;;;;;;;20.83;17.55;;;15.90;56.10;;;;;;4888150;29;20044;-78
2023/04/06 10:53:42;;;;;;;19.77;17.70;;;15.80;57.90;;;;;;4894231;29;20121;-79
2023/04/06 10:56:13;;;;;;;20.58;18.48;;;15.90;59.40;;;;;;4895795;29;20044;-78
2023/04/06 10:58:48;;;;;;;21.13;18.92;;;15.70;58.80;;;;;;4905583;29;20398;-79
2023/04/06 11:01:18;;;;;;;19.98;17.70;;;15.60;56.90;;;;;;4904015;29;20083;-79
2023/04/06 11:03:48;;;;;;;21.40;19.10;;;15.40;56.80;;;;;;4912483;29;20556;-79
2023/04/06 11:06:29;;;;;;;21.05;18.55;;;15.50;57.70;;;;;;4918181;29;20581;-79
2023/04/06 11:08:55;;;;;;;22.35;19.35;;;15.50;56.60;;;;;;4888390;29;20032;-78
2023/04/06 11:11:23;;;;;;;21.25;18.95;;;15.40;57.00;;;;;;4907047;29;20075;-79
2023/04/06 11:13:50;;;;;;;21.48;18.98;;;15.40;57.30;;;;;;4887361;29;20050;-78
2023/04/06 11:16:21;;;;;;;22.73;18.67;;;15.30;56.20;;;;;;4908391;29;20522;-78
2023/04/06 11:19:08;;;;;;;22.33;18.83;;;15.30;56.50;;;;;;4885194;29;20051;-79
2023/04/06 11:21:47;;;;;;;21.70;18.40;;;15.40;55.80;;;;;;4886401;29;20473;-79
2023/04/06 11:24:19;;;;;;;23.10;19.80;;;15.40;56.60;;;;;;4885688;29;20161;-79
2023/04/06 11:26:50;;;;;;;21.23;19.00;;;15.40;55.80;;;;;;4895163;29;20051;-78
2023/04/06 11:29:18;;;;;;;22.95;20.42;;;15.30;56.40;;;;;;4919747;29;20044;-79
2023/04/06 11:31:48;;;;;;;22.98;19.58;;;15.20;57.40;;;;;;4903250;29;20044;-78
2023/04/06 11:34:17;;;;;;;21.50;18.92;;;15.00;57.10;;;;;;4918776;29;20043;-78
2023/04/06 11:36:45;;;;;;;22.65;19.55;;;14.80;57.60;;;;;;4894280;29;20131;-79
2023/04/06 11:39:17;;;;;;;23.80;18.98;;;14.60;57.90;;;;;;4891205;29;20486;-78
2023/04/06 11:41:50;;;;;;;22.30;19.00;;;14.50;58.50;;;;;;4903435;29;20411;-78
2023/04/06 11:44:26;;;;;;;21.40;18.90;;;14.40;57.90;;;;;;4892838;29;20383;-79
2023/04/06 11:46:53;;;;;;;20.50;18.17;;;14.30;57.40;;;;;;4884317;29;20066;-79
2023/04/06 11:49:19;;;;;;;23.20;19.02;;;14.40;58.20;;;;;;4899966;29;20039;-78
2023/04/06 11:51:47;;;;;;;21.17;18.30;;;14.40;58.30;;;;;;4892214;29;20402;-79
2023/04/06 11:54:13;;;;;;;22.15;18.05;;;14.30;58.70;;;;;;4890765;29;20252;-78
2023/04/06 11:56:39;;;;;;;21.35;18.60;;;14.30;59.60;;;;;;4899926;29;20043;-78
2023/04/06 11:59:04;;;;;;;20.08;17.98;;;14.30;59.60;;;;;;4884811;29;20044;-78
2023/04/06 12:01:30;;;;;;;21.13;18.77;;;14.10;60.10;;;;;;4894181;29;20040;-78
2023/04/06 12:03:56;;;;;;;20.63;18.30;;;14.00;60.40;;;;;;4887606;29;20436;-78
2023/04/06 12:06:22;;;;;;;21.42;18.50;;;14.00;60.50;;;;;;4898186;29;20518;-78
2023/04/06 12:08:48;;;;;;;20.58;17.77;;;13.90;60.80;;;;;;4899784;29;20199;-78
2023/04/06 12:11:14;;;;;;;21.45;19.15;;;13.90;60.60;;;;;;4889107;29;20087;-78
2023/04/06 12:13:40;;;;;;;21.27;17.45;;;13.80;61.80;;;;;;4891464;29;20076;-78
2023/04/06 12:16:05;;;;;;;19.92;17.10;;;13.70;60.90;;;;;;4894264;29;20040;-78
2023/04/06 12:18:31;;;;;;;18.27;15.90;;;13.70;60.20;;;;;;4909519;29;20044;-78
2023/04/06 12:20:57;;;;;;;18.65;16.65;;;13.60;60.20;;;;;;4895231;29;20044;-78
2023/04/06 12:23:22;;;;;;;19.70;17.25;;;13.40;60.90;;;;;;4888448;29;20071;-78
2023/04/06 12:25:48;;;;;;;21.83;17.45;;;13.30;60.60;;;;;;4888400;29;20388;-78
2023/04/06 12:28:14;;;;;;;21.63;16.48;;;13.30;62.30;;;;;;4905826;29;20076;-78
2023/04/06 12:30:41;;;;;;;17.38;14.23;;;13.30;62.50;;;;;;4896815;29;20043;-78
2023/04/06 12:33:06;;;;;;;15.80;13.45;;;13.30;62.70;;;;;;4888953;29;20048;-78
2023/04/06 12:35:36;;;;;;;15.43;13.27;;;13.20;63.60;;;;;;4888279;29;20047;-78
2023/04/06 12:38:02;;;;;;;18.10;14.02;;;13.20;64.20;;;;;;4888184;29;20040;-78
2023/04/06 12:40:33;;;;;;;18.15;14.18;;;13.00;65.70;;;;;;4888496;29;20050;-78